sensor_id;sensor_type;location;lat;lon;timestamp;temperature;humidity
28608;DHT22;15802;45.654;13.804;2022-08-19T00:02:21;23.00;99.90
28608;DHT22;15802;45.654;13.804;2022-08-19T00:04:46;23.20;99.90
28608;DHT22;15802;45.654;13.804;2022-08-19T00:07:18;23.40;99.90
28608;DHT22;15802;45.654;13.804;2022-08-19T00:09:44;23.60;99.90
28608;DHT22;15802;45.654;13.804;2022-08-19T00:12:09;23.80;99.90
28608;DHT22;15802;45.654;13.804;2022-08-19T00:14:35;23.80;99.90
28608;DHT22;15802;45.654;13.804;2022-08-19T00:17:01;23.90;99.90
28608;DHT22;15802;45.654;13.804;2022-08-19T00:19:28;23.90;99.90
28608;DHT22;15802;45.654;13.804;2022-08-19T00:21:54;23.90;99.90
28608;DHT22;15802;45.654;13.804;2022-08-19T00:24:21;23.90;99.90
28608;DHT22;15802;45.654;13.804;2022-08-19T00:26:47;23.80;99.90
28608;DHT22;15802;45.654;13.804;2022-08-19T00:29:16;23.80;99.90
28608;DHT22;15802;45.654;13.804;2022-08-19T00:31:42;23.80;99.90
28608;DHT22;15802;45.654;13.804;2022-08-19T00:34:08;23.80;99.90
28608;DHT22;15802;45.654;13.804;2022-08-19T00:36:34;23.80;99.90
28608;DHT22;15802;45.654;13.804;2022-08-19T00:39:00;23.90;99.90
28608;DHT22;15802;45.654;13.804;2022-08-19T00:41:25;23.90;99.90
28608;DHT22;15802;45.654;13.804;2022-08-19T00:44:09;23.90;99.90
28608;DHT22;15802;45.654;13.804;2022-08-19T00:46:36;23.90;99.90
28608;DHT22;15802;45.654;13.804;2022-08-19T00:49:02;23.90;99.90
28608;DHT22;15802;45.654;13.804;2022-08-19T00:51:30;23.90;99.90
28608;DHT22;15802;45.654;13.804;2022-08-19T00:53:57;23.90;99.90
28608;DHT22;15802;45.654;13.804;2022-08-19T00:56:24;24.00;99.90
28608;DHT22;15802;45.654;13.804;2022-08-19T00:58:52;24.10;99.90
28608;DHT22;15802;45.654;13.804;2022-08-19T01:01:18;24.10;99.90
28608;DHT22;15802;45.654;13.804;2022-08-19T01:03:44;24.10;99.90
28608;DHT22;15802;45.654;13.804;2022-08-19T01:06:09;24.10;99.90
28608;DHT22;15802;45.654;13.804;2022-08-19T01:08:35;24.10;99.90
28608;DHT22;15802;45.654;13.804;2022-08-19T01:11:01;24.20;99.90
28608;DHT22;15802;45.654;13.804;2022-08-19T01:13:29;24.20;99.90
28608;DHT22;15802;45.654;13.804;2022-08-19T01:16:00;24.10;99.90
28608;DHT22;15802;45.654;13.804;2022-08-19T01:18:27;24.00;99.90
28608;DHT22;15802;45.654;13.804;2022-08-19T01:20:54;23.70;99.90
28608;DHT22;15802;45.654;13.804;2022-08-19T01:23:21;23.50;99.90
28608;DHT22;15802;45.654;13.804;2022-08-19T01:25:48;23.20;99.90
28608;DHT22;15802;45.654;13.804;2022-08-19T01:28:16;22.90;99.90
28608;DHT22;15802;45.654;13.804;2022-08-19T01:30:43;22.50;99.90
28608;DHT22;15802;45.654;13.804;2022-08-19T01:33:11;22.20;99.90
28608;DHT22;15802;45.654;13.804;2022-08-19T01:35:37;22.00;99.90
28608;DHT22;15802;45.654;13.804;2022-08-19T01:38:05;21.70;99.90
28608;DHT22;15802;45.654;13.804;2022-08-19T01:40:33;21.40;99.90
28608;DHT22;15802;45.654;13.804;2022-08-19T01:43:00;21.30;99.90
28608;DHT22;15802;45.654;13.804;2022-08-19T01:45:27;21.20;99.90
28608;DHT22;15802;45.654;13.804;2022-08-19T01:47:53;21.00;99.90
28608;DHT22;15802;45.654;13.804;2022-08-19T01:50:19;20.80;99.90
28608;DHT22;15802;45.654;13.804;2022-08-19T01:52:45;20.80;99.90
28608;DHT22;15802;45.654;13.804;2022-08-19T01:55:12;20.90;99.90
28608;DHT22;15802;45.654;13.804;2022-08-19T01:57:39;20.90;99.90
28608;DHT22;15802;45.654;13.804;2022-08-19T02:00:07;20.90;99.90
28608;DHT22;15802;45.654;13.804;2022-08-19T02:02:33;20.80;99.90
28608;DHT22;15802;45.654;13.804;2022-08-19T02:04:59;20.80;99.90
28608;DHT22;15802;45.654;13.804;2022-08-19T02:07:24;20.80;99.90
28608;DHT22;15802;45.654;13.804;2022-08-19T02:09:50;20.70;99.90
28608;DHT22;15802;45.654;13.804;2022-08-19T02:12:16;20.60;99.90
28608;DHT22;15802;45.654;13.804;2022-08-19T02:14:42;20.60;99.90
28608;DHT22;15802;45.654;13.804;2022-08-19T02:17:08;20.60;99.90
28608;DHT22;15802;45.654;13.804;2022-08-19T02:19:34;20.60;99.90
28608;DHT22;15802;45.654;13.804;2022-08-19T02:21:59;20.60;99.90
28608;DHT22;15802;45.654;13.804;2022-08-19T02:24:26;20.70;99.90
28608;DHT22;15802;45.654;13.804;2022-08-19T02:26:52;20.60;99.90
28608;DHT22;15802;45.654;13.804;2022-08-19T02:29:18;20.60;99.90
28608;DHT22;15802;45.654;13.804;2022-08-19T02:31:43;20.50;99.90
28608;DHT22;15802;45.654;13.804;2022-08-19T02:34:09;20.30;99.90
28608;DHT22;15802;45.654;13.804;2022-08-19T02:36:35;20.40;99.90
28608;DHT22;15802;45.654;13.804;2022-08-19T02:39:01;20.30;99.90
28608;DHT22;15802;45.654;13.804;2022-08-19T02:41:28;20.40;99.90
28608;DHT22;15802;45.654;13.804;2022-08-19T02:43:55;20.40;99.90
28608;DHT22;15802;45.654;13.804;2022-08-19T02:46:23;20.40;99.90
28608;DHT22;15802;45.654;13.804;2022-08-19T02:48:50;20.40;99.90
28608;DHT22;15802;45.654;13.804;2022-08-19T02:51:18;20.40;99.90
28608;DHT22;15802;45.654;13.804;2022-08-19T02:53:45;20.40;99.90
28608;DHT22;15802;45.654;13.804;2022-08-19T02:56:10;20.30;99.90
28608;DHT22;15802;45.654;13.804;2022-08-19T02:58:36;20.30;99.90
28608;DHT22;15802;45.654;13.804;2022-08-19T03:01:02;20.30;99.90
28608;DHT22;15802;45.654;13.804;2022-08-19T03:03:27;20.20;99.90
28608;DHT22;15802;45.654;13.804;2022-08-19T03:06:04;20.20;99.90
28608;DHT22;15802;45.654;13.804;2022-08-19T03:08:30;20.20;99.90
28608;DHT22;15802;45.654;13.804;2022-08-19T03:10:55;20.20;99.90
28608;DHT22;15802;45.654;13.804;2022-08-19T03:13:21;20.20;99.90
28608;DHT22;15802;45.654;13.804;2022-08-19T03:15:47;20.20;99.90
28608;DHT22;15802;45.654;13.804;2022-08-19T03:18:13;20.20;99.90
28608;DHT22;15802;45.654;13.804;2022-08-19T03:20:40;20.30;99.90
28608;DHT22;15802;45.654;13.804;2022-08-19T03:23:06;20.30;99.90
28608;DHT22;15802;45.654;13.804;2022-08-19T03:25:35;20.30;99.90
28608;DHT22;15802;45.654;13.804;2022-08-19T03:28:01;20.30;99.90
28608;DHT22;15802;45.654;13.804;2022-08-19T03:30:27;20.30;99.90
28608;DHT22;15802;45.654;13.804;2022-08-19T03:32:53;20.30;99.90
28608;DHT22;15802;45.654;13.804;2022-08-19T03:35:18;20.30;99.90
28608;DHT22;15802;45.654;13.804;2022-08-19T03:37:45;20.30;99.90
28608;DHT22;15802;45.654;13.804;2022-08-19T03:40:11;20.30;99.90
28608;DHT22;15802;45.654;13.804;2022-08-19T03:42:36;20.40;99.90
28608;DHT22;15802;45.654;13.804;2022-08-19T03:45:02;20.50;99.90
28608;DHT22;15802;45.654;13.804;2022-08-19T03:47:28;20.50;99.90
28608;DHT22;15802;45.654;13.804;2022-08-19T03:49:55;20.50;99.90
28608;DHT22;15802;45.654;13.804;2022-08-19T03:52:21;20.60;99.90
28608;DHT22;15802;45.654;13.804;2022-08-19T03:54:46;20.60;99.90
28608;DHT22;15802;45.654;13.804;2022-08-19T03:57:12;20.60;99.90
28608;DHT22;15802;45.654;13.804;2022-08-19T03:59:39;20.60;99.90
28608;DHT22;15802;45.654;13.804;2022-08-19T04:02:06;20.60;99.90
28608;DHT22;15802;45.654;13.804;2022-08-19T04:04:34;20.60;99.90
28608;DHT22;15802;45.654;13.804;2022-08-19T04:07:00;20.50;99.90
28608;DHT22;15802;45.654;13.804;2022-08-19T04:09:25;20.40;99.90
28608;DHT22;15802;45.654;13.804;2022-08-19T04:11:53;20.20;99.90
28608;DHT22;15802;45.654;13.804;2022-08-19T04:14:21;20.10;99.90
28608;DHT22;15802;45.654;13.804;2022-08-19T04:16:47;20.00;99.90
28608;DHT22;15802;45.654;13.804;2022-08-19T04:19:13;19.80;99.90
28608;DHT22;15802;45.654;13.804;2022-08-19T04:21:39;19.70;99.90
28608;DHT22;15802;45.654;13.804;2022-08-19T04:24:05;19.60;99.90
28608;DHT22;15802;45.654;13.804;2022-08-19T04:26:32;19.50;99.90
28608;DHT22;15802;45.654;13.804;2022-08-19T04:28:59;19.50;99.90
28608;DHT22;15802;45.654;13.804;2022-08-19T04:31:26;19.40;99.90
28608;DHT22;15802;45.654;13.804;2022-08-19T04:33:53;19.40;99.90
28608;DHT22;15802;45.654;13.804;2022-08-19T04:36:23;19.30;99.90
28608;DHT22;15802;45.654;13.804;2022-08-19T04:38:49;19.30;99.90
28608;DHT22;15802;45.654;13.804;2022-08-19T04:41:15;19.30;99.90
28608;DHT22;15802;45.654;13.804;2022-08-19T04:43:59;19.40;99.90
28608;DHT22;15802;45.654;13.804;2022-08-19T04:46:25;19.40;99.90
28608;DHT22;15802;45.654;13.804;2022-08-19T04:48:51;19.50;99.90
28608;DHT22;15802;45.654;13.804;2022-08-19T04:51:18;19.60;99.90
28608;DHT22;15802;45.654;13.804;2022-08-19T04:53:44;19.50;99.90
28608;DHT22;15802;45.654;13.804;2022-08-19T04:56:11;19.60;99.90
28608;DHT22;15802;45.654;13.804;2022-08-19T04:58:38;19.60;99.90
28608;DHT22;15802;45.654;13.804;2022-08-19T05:01:06;19.60;99.90
28608;DHT22;15802;45.654;13.804;2022-08-19T05:03:32;19.70;99.90
28608;DHT22;15802;45.654;13.804;2022-08-19T05:06:03;19.80;99.90
28608;DHT22;15802;45.654;13.804;2022-08-19T05:08:29;19.90;99.90
28608;DHT22;15802;45.654;13.804;2022-08-19T05:10:56;20.00;99.90
28608;DHT22;15802;45.654;13.804;2022-08-19T05:13:25;20.20;99.90
28608;DHT22;15802;45.654;13.804;2022-08-19T05:15:54;20.20;99.90
28608;DHT22;15802;45.654;13.804;2022-08-19T05:18:21;20.30;99.90
28608;DHT22;15802;45.654;13.804;2022-08-19T05:21:06;20.20;99.90
28608;DHT22;15802;45.654;13.804;2022-08-19T05:23:50;20.20;99.90
28608;DHT22;15802;45.654;13.804;2022-08-19T05:26:17;20.10;99.90
28608;DHT22;15802;45.654;13.804;2022-08-19T05:28:43;20.10;99.90
28608;DHT22;15802;45.654;13.804;2022-08-19T05:31:08;20.20;99.90
28608;DHT22;15802;45.654;13.804;2022-08-19T05:33:34;20.10;99.90
28608;DHT22;15802;45.654;13.804;2022-08-19T05:36:00;20.20;99.90
28608;DHT22;15802;45.654;13.804;2022-08-19T05:38:26;20.40;99.90
28608;DHT22;15802;45.654;13.804;2022-08-19T05:40:52;20.50;99.90
28608;DHT22;15802;45.654;13.804;2022-08-19T05:43:18;20.50;99.90
28608;DHT22;15802;45.654;13.804;2022-08-19T05:45:44;20.50;99.90
28608;DHT22;15802;45.654;13.804;2022-08-19T05:48:10;20.70;99.90
28608;DHT22;15802;45.654;13.804;2022-08-19T05:50:37;20.90;99.90
28608;DHT22;15802;45.654;13.804;2022-08-19T05:53:03;21.00;99.90
28608;DHT22;15802;45.654;13.804;2022-08-19T05:55:29;21.10;99.90
28608;DHT22;15802;45.654;13.804;2022-08-19T05:57:55;21.10;99.90
28608;DHT22;15802;45.654;13.804;2022-08-19T06:00:20;21.10;99.90
28608;DHT22;15802;45.654;13.804;2022-08-19T06:02:46;21.10;99.90
28608;DHT22;15802;45.654;13.804;2022-08-19T06:05:12;21.10;99.90
28608;DHT22;15802;45.654;13.804;2022-08-19T06:07:38;21.20;99.90
28608;DHT22;15802;45.654;13.804;2022-08-19T06:10:04;21.20;99.90
28608;DHT22;15802;45.654;13.804;2022-08-19T06:12:31;21.30;99.90
28608;DHT22;15802;45.654;13.804;2022-08-19T06:15:00;21.30;99.90
28608;DHT22;15802;45.654;13.804;2022-08-19T06:17:26;21.40;99.90
28608;DHT22;15802;45.654;13.804;2022-08-19T06:19:52;21.40;99.90
28608;DHT22;15802;45.654;13.804;2022-08-19T06:22:17;21.50;99.90
28608;DHT22;15802;45.654;13.804;2022-08-19T06:24:43;21.60;99.90
28608;DHT22;15802;45.654;13.804;2022-08-19T06:27:11;21.70;99.90
28608;DHT22;15802;45.654;13.804;2022-08-19T06:29:37;21.80;99.90
28608;DHT22;15802;45.654;13.804;2022-08-19T06:32:03;21.90;99.90
28608;DHT22;15802;45.654;13.804;2022-08-19T06:34:30;22.00;99.90
28608;DHT22;15802;45.654;13.804;2022-08-19T06:36:58;21.90;99.90
28608;DHT22;15802;45.654;13.804;2022-08-19T06:39:27;22.00;99.90
28608;DHT22;15802;45.654;13.804;2022-08-19T06:41:54;22.20;99.90
28608;DHT22;15802;45.654;13.804;2022-08-19T06:44:21;22.20;99.90
28608;DHT22;15802;45.654;13.804;2022-08-19T06:46:47;22.30;99.90
28608;DHT22;15802;45.654;13.804;2022-08-19T06:49:14;22.20;99.90
28608;DHT22;15802;45.654;13.804;2022-08-19T06:51:42;22.20;99.90
28608;DHT22;15802;45.654;13.804;2022-08-19T06:54:09;22.40;99.90
28608;DHT22;15802;45.654;13.804;2022-08-19T06:56:35;22.60;99.90
28608;DHT22;15802;45.654;13.804;2022-08-19T06:59:02;22.80;99.90
28608;DHT22;15802;45.654;13.804;2022-08-19T07:01:28;22.90;99.90
28608;DHT22;15802;45.654;13.804;2022-08-19T07:03:53;22.90;99.90
28608;DHT22;15802;45.654;13.804;2022-08-19T07:06:19;23.00;99.90
28608;DHT22;15802;45.654;13.804;2022-08-19T07:08:45;23.10;99.90
28608;DHT22;15802;45.654;13.804;2022-08-19T07:11:12;23.10;99.90
28608;DHT22;15802;45.654;13.804;2022-08-19T07:13:39;23.10;99.90
28608;DHT22;15802;45.654;13.804;2022-08-19T07:16:06;23.10;99.90
28608;DHT22;15802;45.654;13.804;2022-08-19T07:18:32;23.20;99.90
28608;DHT22;15802;45.654;13.804;2022-08-19T07:21:08;23.20;99.90
28608;DHT22;15802;45.654;13.804;2022-08-19T07:23:34;23.30;99.90
28608;DHT22;15802;45.654;13.804;2022-08-19T07:26:08;23.30;99.90
28608;DHT22;15802;45.654;13.804;2022-08-19T07:28:33;23.30;99.90
28608;DHT22;15802;45.654;13.804;2022-08-19T07:30:59;23.30;99.90
28608;DHT22;15802;45.654;13.804;2022-08-19T07:33:29;23.30;99.90
28608;DHT22;15802;45.654;13.804;2022-08-19T07:35:57;23.30;99.90
28608;DHT22;15802;45.654;13.804;2022-08-19T07:38:23;23.40;99.90
28608;DHT22;15802;45.654;13.804;2022-08-19T07:40:49;23.50;99.90
28608;DHT22;15802;45.654;13.804;2022-08-19T07:43:16;23.60;99.90
28608;DHT22;15802;45.654;13.804;2022-08-19T07:45:45;23.70;99.90
28608;DHT22;15802;45.654;13.804;2022-08-19T07:48:12;23.80;99.90
28608;DHT22;15802;45.654;13.804;2022-08-19T07:50:37;23.90;99.90
28608;DHT22;15802;45.654;13.804;2022-08-19T07:53:03;24.00;99.90
28608;DHT22;15802;45.654;13.804;2022-08-19T07:55:29;24.10;99.90
28608;DHT22;15802;45.654;13.804;2022-08-19T07:57:55;24.20;99.90
28608;DHT22;15802;45.654;13.804;2022-08-19T08:00:21;24.20;99.90
28608;DHT22;15802;45.654;13.804;2022-08-19T08:02:47;24.20;99.90
28608;DHT22;15802;45.654;13.804;2022-08-19T08:05:13;24.30;99.90
28608;DHT22;15802;45.654;13.804;2022-08-19T08:07:57;24.30;99.90
28608;DHT22;15802;45.654;13.804;2022-08-19T08:10:41;24.40;99.90
28608;DHT22;15802;45.654;13.804;2022-08-19T08:13:07;24.50;99.90
28608;DHT22;15802;45.654;13.804;2022-08-19T08:15:33;24.60;99.90
28608;DHT22;15802;45.654;13.804;2022-08-19T08:17:58;24.80;99.90
28608;DHT22;15802;45.654;13.804;2022-08-19T08:20:24;24.80;99.90
28608;DHT22;15802;45.654;13.804;2022-08-19T08:22:50;25.00;99.90
28608;DHT22;15802;45.654;13.804;2022-08-19T08:25:35;25.10;99.90
28608;DHT22;15802;45.654;13.804;2022-08-19T08:28:02;25.20;99.90
28608;DHT22;15802;45.654;13.804;2022-08-19T08:30:29;25.30;99.90
28608;DHT22;15802;45.654;13.804;2022-08-19T08:32:55;25.30;99.90
28608;DHT22;15802;45.654;13.804;2022-08-19T08:35:22;25.50;99.90
28608;DHT22;15802;45.654;13.804;2022-08-19T08:37:48;25.60;99.90
28608;DHT22;15802;45.654;13.804;2022-08-19T08:40:18;25.70;99.90
28608;DHT22;15802;45.654;13.804;2022-08-19T08:42:49;25.90;99.90
28608;DHT22;15802;45.654;13.804;2022-08-19T08:45:17;26.10;99.90
28608;DHT22;15802;45.654;13.804;2022-08-19T08:47:44;26.30;99.90
28608;DHT22;15802;45.654;13.804;2022-08-19T08:50:13;26.50;99.90
28608;DHT22;15802;45.654;13.804;2022-08-19T08:52:42;26.60;99.90
28608;DHT22;15802;45.654;13.804;2022-08-19T08:55:11;26.70;99.90
28608;DHT22;15802;45.654;13.804;2022-08-19T08:57:48;26.90;99.90
28608;DHT22;15802;45.654;13.804;2022-08-19T09:00:21;27.00;99.90
28608;DHT22;15802;45.654;13.804;2022-08-19T09:02:48;27.10;99.90
28608;DHT22;15802;45.654;13.804;2022-08-19T09:05:14;27.10;99.90
28608;DHT22;15802;45.654;13.804;2022-08-19T09:10:32;27.10;99.90
28608;DHT22;15802;45.654;13.804;2022-08-19T09:15:58;27.00;99.90
28608;DHT22;15802;45.654;13.804;2022-08-19T09:18:38;26.80;99.90
28608;DHT22;15802;45.654;13.804;2022-08-19T09:21:04;26.70;99.90
28608;DHT22;15802;45.654;13.804;2022-08-19T09:23:30;26.80;99.90
28608;DHT22;15802;45.654;13.804;2022-08-19T09:25:55;26.80;99.90
28608;DHT22;15802;45.654;13.804;2022-08-19T09:28:21;26.90;99.90
28608;DHT22;15802;45.654;13.804;2022-08-19T09:30:47;27.00;99.90
28608;DHT22;15802;45.654;13.804;2022-08-19T09:33:13;27.10;99.90
28608;DHT22;15802;45.654;13.804;2022-08-19T09:35:39;27.10;99.90
28608;DHT22;15802;45.654;13.804;2022-08-19T09:38:05;27.30;99.90
28608;DHT22;15802;45.654;13.804;2022-08-19T09:40:30;27.30;99.90
28608;DHT22;15802;45.654;13.804;2022-08-19T09:42:56;27.40;99.90
28608;DHT22;15802;45.654;13.804;2022-08-19T09:45:27;27.60;99.90
28608;DHT22;15802;45.654;13.804;2022-08-19T09:47:53;27.70;99.90
28608;DHT22;15802;45.654;13.804;2022-08-19T09:50:19;27.70;99.90
28608;DHT22;15802;45.654;13.804;2022-08-19T09:52:45;27.70;99.90
28608;DHT22;15802;45.654;13.804;2022-08-19T09:55:11;27.90;99.90
28608;DHT22;15802;45.654;13.804;2022-08-19T09:57:37;28.10;99.90
28608;DHT22;15802;45.654;13.804;2022-08-19T10:00:04;28.40;99.90
28608;DHT22;15802;45.654;13.804;2022-08-19T10:02:30;28.60;99.90
28608;DHT22;15802;45.654;13.804;2022-08-19T10:04:56;28.80;99.90
28608;DHT22;15802;45.654;13.804;2022-08-19T10:07:40;29.00;99.90
28608;DHT22;15802;45.654;13.804;2022-08-19T10:10:06;28.90;99.90
28608;DHT22;15802;45.654;13.804;2022-08-19T10:12:32;28.80;99.90
28608;DHT22;15802;45.654;13.804;2022-08-19T10:14:59;28.70;99.90
28608;DHT22;15802;45.654;13.804;2022-08-19T10:17:24;28.50;99.90
28608;DHT22;15802;45.654;13.804;2022-08-19T10:19:54;28.30;99.90
28608;DHT22;15802;45.654;13.804;2022-08-19T10:22:19;28.10;99.90
28608;DHT22;15802;45.654;13.804;2022-08-19T10:24:45;28.00;99.90
28608;DHT22;15802;45.654;13.804;2022-08-19T10:27:11;27.90;99.90
28608;DHT22;15802;45.654;13.804;2022-08-19T10:29:38;27.80;99.90
28608;DHT22;15802;45.654;13.804;2022-08-19T10:32:05;27.60;99.90
28608;DHT22;15802;45.654;13.804;2022-08-19T10:34:34;27.50;99.90
28608;DHT22;15802;45.654;13.804;2022-08-19T10:37:00;27.20;99.90
28608;DHT22;15802;45.654;13.804;2022-08-19T10:39:26;26.90;99.90
28608;DHT22;15802;45.654;13.804;2022-08-19T10:41:54;26.40;99.90
28608;DHT22;15802;45.654;13.804;2022-08-19T10:44:21;25.80;99.90
28608;DHT22;15802;45.654;13.804;2022-08-19T10:46:48;24.90;99.90
28608;DHT22;15802;45.654;13.804;2022-08-19T10:49:14;24.20;99.90
28608;DHT22;15802;45.654;13.804;2022-08-19T10:51:40;23.80;99.90
28608;DHT22;15802;45.654;13.804;2022-08-19T10:54:24;23.30;99.90
28608;DHT22;15802;45.654;13.804;2022-08-19T10:57:10;22.90;99.90
28608;DHT22;15802;45.654;13.804;2022-08-19T10:59:36;22.60;99.90
28608;DHT22;15802;45.654;13.804;2022-08-19T11:02:02;22.50;99.90
28608;DHT22;15802;45.654;13.804;2022-08-19T11:04:28;22.40;99.90
28608;DHT22;15802;45.654;13.804;2022-08-19T11:06:55;22.40;99.90
28608;DHT22;15802;45.654;13.804;2022-08-19T11:09:21;22.40;99.90
28608;DHT22;15802;45.654;13.804;2022-08-19T11:11:50;22.50;99.90
28608;DHT22;15802;45.654;13.804;2022-08-19T11:14:17;22.80;99.90
28608;DHT22;15802;45.654;13.804;2022-08-19T11:16:45;23.00;99.90
28608;DHT22;15802;45.654;13.804;2022-08-19T11:19:12;23.10;99.90
28608;DHT22;15802;45.654;13.804;2022-08-19T11:21:40;23.30;99.90
28608;DHT22;15802;45.654;13.804;2022-08-19T11:24:07;23.50;99.90
28608;DHT22;15802;45.654;13.804;2022-08-19T11:26:34;23.70;99.90
28608;DHT22;15802;45.654;13.804;2022-08-19T11:29:01;23.80;99.90
28608;DHT22;15802;45.654;13.804;2022-08-19T11:31:28;23.90;99.90
28608;DHT22;15802;45.654;13.804;2022-08-19T11:33:58;23.90;99.90
28608;DHT22;15802;45.654;13.804;2022-08-19T11:36:25;24.00;99.90
28608;DHT22;15802;45.654;13.804;2022-08-19T11:38:51;24.20;99.90
28608;DHT22;15802;45.654;13.804;2022-08-19T11:41:18;24.30;99.90
28608;DHT22;15802;45.654;13.804;2022-08-19T11:43:44;24.60;99.90
28608;DHT22;15802;45.654;13.804;2022-08-19T11:46:11;24.60;99.90
28608;DHT22;15802;45.654;13.804;2022-08-19T11:48:37;24.80;99.90
28608;DHT22;15802;45.654;13.804;2022-08-19T11:51:05;24.80;99.90
28608;DHT22;15802;45.654;13.804;2022-08-19T11:53:32;24.90;99.90
28608;DHT22;15802;45.654;13.804;2022-08-19T11:56:01;25.00;99.90
28608;DHT22;15802;45.654;13.804;2022-08-19T11:58:27;25.10;99.90
28608;DHT22;15802;45.654;13.804;2022-08-19T12:00:54;25.10;99.90
28608;DHT22;15802;45.654;13.804;2022-08-19T12:03:20;25.10;99.90
28608;DHT22;15802;45.654;13.804;2022-08-19T12:05:46;25.10;99.90
28608;DHT22;15802;45.654;13.804;2022-08-19T12:08:12;25.10;99.90
28608;DHT22;15802;45.654;13.804;2022-08-19T12:10:38;25.20;99.90
28608;DHT22;15802;45.654;13.804;2022-08-19T12:13:04;25.20;99.90
28608;DHT22;15802;45.654;13.804;2022-08-19T12:15:36;25.40;99.90
28608;DHT22;15802;45.654;13.804;2022-08-19T12:18:02;25.60;99.90
28608;DHT22;15802;45.654;13.804;2022-08-19T12:20:28;25.90;99.90
28608;DHT22;15802;45.654;13.804;2022-08-19T12:22:54;26.20;99.90
28608;DHT22;15802;45.654;13.804;2022-08-19T12:25:20;26.50;99.90
28608;DHT22;15802;45.654;13.804;2022-08-19T12:27:46;26.60;99.90
28608;DHT22;15802;45.654;13.804;2022-08-19T12:30:12;26.50;99.90
28608;DHT22;15802;45.654;13.804;2022-08-19T12:32:39;26.60;99.90
28608;DHT22;15802;45.654;13.804;2022-08-19T12:35:05;26.40;99.90
28608;DHT22;15802;45.654;13.804;2022-08-19T12:37:31;26.40;99.90
28608;DHT22;15802;45.654;13.804;2022-08-19T12:39:57;26.50;99.90
28608;DHT22;15802;45.654;13.804;2022-08-19T12:42:23;26.70;99.90
28608;DHT22;15802;45.654;13.804;2022-08-19T12:44:49;26.70;99.90
28608;DHT22;15802;45.654;13.804;2022-08-19T12:47:15;26.80;99.90
28608;DHT22;15802;45.654;13.804;2022-08-19T12:49:42;27.00;99.90
28608;DHT22;15802;45.654;13.804;2022-08-19T12:52:09;27.10;99.90
28608;DHT22;15802;45.654;13.804;2022-08-19T12:54:36;27.30;99.90
28608;DHT22;15802;45.654;13.804;2022-08-19T12:57:09;27.30;99.90
28608;DHT22;15802;45.654;13.804;2022-08-19T12:59:36;27.40;99.90
28608;DHT22;15802;45.654;13.804;2022-08-19T13:02:02;27.50;99.90
28608;DHT22;15802;45.654;13.804;2022-08-19T13:04:32;27.60;99.90
28608;DHT22;15802;45.654;13.804;2022-08-19T13:07:00;27.70;99.90
28608;DHT22;15802;45.654;13.804;2022-08-19T13:09:26;27.80;99.90
28608;DHT22;15802;45.654;13.804;2022-08-19T13:11:51;27.70;99.90
28608;DHT22;15802;45.654;13.804;2022-08-19T13:14:17;27.70;99.90
28608;DHT22;15802;45.654;13.804;2022-08-19T13:16:44;27.80;99.90
28608;DHT22;15802;45.654;13.804;2022-08-19T13:19:09;27.90;99.90
28608;DHT22;15802;45.654;13.804;2022-08-19T13:21:37;28.00;99.90
28608;DHT22;15802;45.654;13.804;2022-08-19T13:24:02;28.10;99.90
28608;DHT22;15802;45.654;13.804;2022-08-19T13:26:28;28.10;99.90
28608;DHT22;15802;45.654;13.804;2022-08-19T13:28:54;28.10;99.90
28608;DHT22;15802;45.654;13.804;2022-08-19T13:31:39;28.10;99.90
28608;DHT22;15802;45.654;13.804;2022-08-19T13:34:30;28.00;99.90
28608;DHT22;15802;45.654;13.804;2022-08-19T13:36:56;28.10;99.90
28608;DHT22;15802;45.654;13.804;2022-08-19T13:39:22;28.10;99.90
28608;DHT22;15802;45.654;13.804;2022-08-19T13:41:48;28.00;99.90
28608;DHT22;15802;45.654;13.804;2022-08-19T13:44:15;27.90;99.90
28608;DHT22;15802;45.654;13.804;2022-08-19T13:46:43;28.00;99.90
28608;DHT22;15802;45.654;13.804;2022-08-19T13:49:09;28.10;99.90
28608;DHT22;15802;45.654;13.804;2022-08-19T13:51:36;28.10;99.90
28608;DHT22;15802;45.654;13.804;2022-08-19T13:54:05;27.80;99.90
28608;DHT22;15802;45.654;13.804;2022-08-19T13:56:30;27.90;99.90
28608;DHT22;15802;45.654;13.804;2022-08-19T13:58:56;27.90;99.90
28608;DHT22;15802;45.654;13.804;2022-08-19T14:01:23;27.80;99.90
28608;DHT22;15802;45.654;13.804;2022-08-19T14:03:49;27.80;99.90
28608;DHT22;15802;45.654;13.804;2022-08-19T14:06:14;28.00;99.90
28608;DHT22;15802;45.654;13.804;2022-08-19T14:08:42;28.00;99.90
28608;DHT22;15802;45.654;13.804;2022-08-19T14:11:08;28.10;99.90
28608;DHT22;15802;45.654;13.804;2022-08-19T14:13:34;28.40;99.90
28608;DHT22;15802;45.654;13.804;2022-08-19T14:15:59;28.40;99.90
28608;DHT22;15802;45.654;13.804;2022-08-19T14:18:25;28.40;99.90
28608;DHT22;15802;45.654;13.804;2022-08-19T14:20:51;28.30;99.90
28608;DHT22;15802;45.654;13.804;2022-08-19T14:23:17;28.20;99.90
28608;DHT22;15802;45.654;13.804;2022-08-19T14:25:43;28.00;99.90
28608;DHT22;15802;45.654;13.804;2022-08-19T14:28:09;28.00;99.90
28608;DHT22;15802;45.654;13.804;2022-08-19T14:30:35;27.90;99.90
28608;DHT22;15802;45.654;13.804;2022-08-19T14:33:03;27.80;99.90
28608;DHT22;15802;45.654;13.804;2022-08-19T14:35:30;27.70;99.90
28608;DHT22;15802;45.654;13.804;2022-08-19T14:38:00;27.60;99.90
28608;DHT22;15802;45.654;13.804;2022-08-19T14:40:26;27.50;99.90
28608;DHT22;15802;45.654;13.804;2022-08-19T14:42:53;27.30;99.90
28608;DHT22;15802;45.654;13.804;2022-08-19T14:45:24;27.30;99.90
28608;DHT22;15802;45.654;13.804;2022-08-19T14:47:50;27.40;99.90
28608;DHT22;15802;45.654;13.804;2022-08-19T14:50:16;27.30;99.90
28608;DHT22;15802;45.654;13.804;2022-08-19T14:52:41;27.30;99.90
28608;DHT22;15802;45.654;13.804;2022-08-19T14:55:08;27.20;99.90
28608;DHT22;15802;45.654;13.804;2022-08-19T14:57:34;27.10;99.90
28608;DHT22;15802;45.654;13.804;2022-08-19T14:59:59;26.90;99.90
28608;DHT22;15802;45.654;13.804;2022-08-19T15:02:25;26.70;99.90
28608;DHT22;15802;45.654;13.804;2022-08-19T15:04:51;26.60;99.90
28608;DHT22;15802;45.654;13.804;2022-08-19T15:07:17;26.60;99.90
28608;DHT22;15802;45.654;13.804;2022-08-19T15:09:43;26.60;99.90
28608;DHT22;15802;45.654;13.804;2022-08-19T15:12:08;26.60;99.90
28608;DHT22;15802;45.654;13.804;2022-08-19T15:14:35;26.50;99.90
28608;DHT22;15802;45.654;13.804;2022-08-19T15:17:03;26.60;99.90
28608;DHT22;15802;45.654;13.804;2022-08-19T15:19:30;26.70;99.90
28608;DHT22;15802;45.654;13.804;2022-08-19T15:21:56;26.60;99.90